createdAt,value
2024-02-08T06:01:32.112Z,577.00
2024-02-08T06:02:08.504Z,573.00
2024-02-08T06:03:08.480Z,573.00
2024-02-08T06:04:08.614Z,574.00
2024-02-08T06:05:08.556Z,573.00
2024-02-08T06:06:08.646Z,574.00
2024-02-08T06:07:08.909Z,573.00
2024-02-08T06:08:08.564Z,574.00
2024-02-08T06:09:08.460Z,575.00
2024-02-08T06:10:08.494Z,574.00
2024-02-08T06:11:08.484Z,572.00
2024-02-08T06:12:09.378Z,570.00
2024-02-08T06:13:08.485Z,568.00
2024-02-08T06:14:08.510Z,566.00
2024-02-08T06:15:08.507Z,567.00
2024-02-08T06:16:08.691Z,568.00
2024-02-08T06:17:08.486Z,572.00
2024-02-08T06:18:08.575Z,570.00
2024-02-08T06:19:08.561Z,569.00
2024-02-08T06:20:08.556Z,570.00
2024-02-08T06:21:08.507Z,567.00
2024-02-08T06:22:08.513Z,569.00
2024-02-08T06:23:08.488Z,567.00
2024-02-08T06:24:08.486Z,566.00
2024-02-08T06:25:08.580Z,567.00
2024-02-08T06:26:08.543Z,568.00
2024-02-08T06:27:08.554Z,571.00
2024-02-08T06:28:08.634Z,621.00
2024-02-08T06:29:08.526Z,618.00
2024-02-08T06:30:08.536Z,611.00
2024-02-08T06:31:08.541Z,607.00
2024-02-08T06:32:08.533Z,604.00
2024-02-08T06:33:08.628Z,615.00
2024-02-08T06:34:08.671Z,615.00
2024-02-08T06:35:08.785Z,609.00
2024-02-08T06:36:08.555Z,605.00
2024-02-08T06:37:08.557Z,636.00
2024-02-08T06:38:08.549Z,623.00
2024-02-08T06:39:08.562Z,619.00
2024-02-08T06:40:08.555Z,617.00
2024-02-08T06:41:08.534Z,618.00
2024-02-08T06:42:08.638Z,618.00
2024-02-08T06:43:08.601Z,609.00
2024-02-08T06:44:08.610Z,605.00
2024-02-08T06:45:08.623Z,599.00
2024-02-08T06:46:08.743Z,594.00
2024-02-08T06:47:08.767Z,588.00
2024-02-08T06:48:08.851Z,587.00
2024-02-08T06:49:08.946Z,591.00
2024-02-08T06:50:09.029Z,599.00
2024-02-08T06:51:08.985Z,664.00
2024-02-08T06:52:09.077Z,649.00
2024-02-08T06:53:09.102Z,644.00
2024-02-08T06:54:09.114Z,641.00
2024-02-08T06:55:09.204Z,638.00
2024-02-08T06:56:09.257Z,638.00
2024-02-08T06:57:09.261Z,635.00
2024-02-08T06:58:09.352Z,670.00
2024-02-08T06:59:09.374Z,662.00
2024-02-08T07:00:09.525Z,664.00
2024-02-08T07:01:09.615Z,672.00
2024-02-08T07:02:09.504Z,677.00
2024-02-08T07:03:09.597Z,687.00
2024-02-08T07:04:09.662Z,699.00
2024-02-08T07:05:12.928Z,712.00
2024-02-08T07:06:09.615Z,720.00
2024-02-08T07:07:09.685Z,731.00
2024-02-08T07:08:09.663Z,737.00
2024-02-08T07:09:09.597Z,744.00
2024-02-08T07:10:09.616Z,751.00
2024-02-08T07:11:09.608Z,754.00
2024-02-08T07:12:09.606Z,752.00
2024-02-08T07:13:09.661Z,757.00
2024-02-08T07:14:09.600Z,874.00
2024-02-08T07:15:09.593Z,810.00
2024-02-08T07:16:09.647Z,794.00
2024-02-08T07:17:09.587Z,787.00
2024-02-08T07:18:13.499Z,786.00
2024-02-08T07:19:09.807Z,786.00
2024-02-08T07:20:09.705Z,786.00
2024-02-08T07:21:09.612Z,786.00
2024-02-08T07:22:09.622Z,783.00
2024-02-08T07:23:09.613Z,786.00
2024-02-08T07:24:09.588Z,786.00
2024-02-08T07:25:09.677Z,791.00
2024-02-08T07:26:09.678Z,818.00
2024-02-08T07:27:09.624Z,814.00
2024-02-08T07:28:09.655Z,813.00
2024-02-08T07:29:09.641Z,807.00
2024-02-08T07:30:09.664Z,847.00
2024-02-08T07:31:09.649Z,840.00
2024-02-08T07:32:09.591Z,825.00
2024-02-08T07:33:09.725Z,831.00
2024-02-08T07:34:09.638Z,839.00
2024-02-08T07:35:09.725Z,844.00
2024-02-08T07:36:09.628Z,852.00
2024-02-08T07:37:09.633Z,855.00
2024-02-08T07:38:09.712Z,855.00
2024-02-08T07:39:09.606Z,860.00
2024-02-08T07:40:09.655Z,870.00
2024-02-08T07:41:09.638Z,869.00
2024-02-08T07:42:09.636Z,867.00
2024-02-08T07:43:09.698Z,866.00
2024-02-08T07:44:09.608Z,865.00
2024-02-08T07:45:09.610Z,864.00
2024-02-08T07:46:09.654Z,863.00
2024-02-08T07:47:09.700Z,867.00
2024-02-08T07:48:09.842Z,867.00
2024-02-08T07:49:09.717Z,943.00
2024-02-08T07:50:09.888Z,915.00
2024-02-08T07:51:09.703Z,904.00
2024-02-08T07:52:09.678Z,900.00
2024-02-08T07:53:09.671Z,898.00
2024-02-08T07:54:09.666Z,893.00
2024-02-08T07:55:09.741Z,890.00
2024-02-08T07:56:09.676Z,893.00
2024-02-08T07:57:09.670Z,902.00
2024-02-08T07:58:10.107Z,906.00
2024-02-08T07:59:09.652Z,908.00
2024-02-08T08:00:32.210Z,910.00
2024-02-08T08:01:09.704Z,918.00
2024-02-08T08:02:09.734Z,923.00
2024-02-08T08:03:09.708Z,928.00
2024-02-08T08:04:09.788Z,927.00
2024-02-08T08:05:09.839Z,925.00
2024-02-08T08:06:09.698Z,936.00
2024-02-08T08:07:09.708Z,938.00
2024-02-08T08:08:09.736Z,932.00
2024-02-08T08:09:09.700Z,928.00
2024-02-08T08:10:10.300Z,931.00
2024-02-08T08:11:09.752Z,930.00
2024-02-08T08:12:09.662Z,930.00
2024-02-08T08:13:09.750Z,930.00
2024-02-08T08:14:09.863Z,926.00
2024-02-08T08:15:09.715Z,919.00
2024-02-08T08:16:09.713Z,914.00
2024-02-08T08:17:09.856Z,909.00
2024-02-08T08:18:09.745Z,907.00
2024-02-08T08:19:10.258Z,914.00
2024-02-08T08:20:09.793Z,916.00
2024-02-08T08:21:09.733Z,926.00
2024-02-08T08:22:09.813Z,947.00
2024-02-08T08:23:09.953Z,970.00
2024-02-08T08:24:09.846Z,959.00
2024-02-08T08:25:13.273Z,945.00
2024-02-08T08:26:09.920Z,929.00
2024-02-08T08:27:09.920Z,923.00
2024-02-08T08:28:10.023Z,919.00
2024-02-08T08:29:09.942Z,917.00
2024-02-08T08:30:09.909Z,912.00
2024-02-08T08:31:09.976Z,904.00
2024-02-08T08:32:09.912Z,896.00
2024-02-08T08:33:10.151Z,890.00
2024-02-08T08:34:09.921Z,878.00
2024-02-08T08:35:10.016Z,871.00
2024-02-08T08:36:09.925Z,859.00
2024-02-08T08:37:09.930Z,853.00
2024-02-08T08:38:09.955Z,847.00
2024-02-08T08:39:09.998Z,835.00
2024-02-08T08:40:10.195Z,824.00
2024-02-08T08:41:10.278Z,816.00
2024-02-08T08:42:10.059Z,808.00
2024-02-08T08:43:10.079Z,802.00
2024-02-08T08:44:10.218Z,804.00
2024-02-08T08:45:10.204Z,813.00
2024-02-08T08:46:10.192Z,834.00
2024-02-08T08:47:10.134Z,843.00
2024-02-08T08:48:10.303Z,843.00
2024-02-08T08:49:10.360Z,845.00
2024-02-08T08:50:10.435Z,848.00
2024-02-08T08:51:10.303Z,856.00
2024-02-08T08:52:10.445Z,862.00
2024-02-08T08:53:10.497Z,872.00
2024-02-08T08:54:10.435Z,883.00
2024-02-08T08:55:10.701Z,887.00
2024-02-08T08:56:10.585Z,890.00
2024-02-08T08:57:10.698Z,899.00
2024-02-08T08:58:10.794Z,908.00
2024-02-08T08:59:10.780Z,917.00
2024-02-08T09:00:10.950Z,803.00
2024-02-08T09:01:11.004Z,796.00
2024-02-08T09:02:11.075Z,756.00
2024-02-08T09:03:10.860Z,728.00
2024-02-08T09:04:11.196Z,704.00
2024-02-08T09:05:11.096Z,636.00
2024-02-08T09:06:11.018Z,632.00
2024-02-08T09:07:11.156Z,621.00
2024-02-08T09:08:11.616Z,603.00
2024-02-08T09:09:11.101Z,595.00
2024-02-08T09:10:11.204Z,592.00
2024-02-08T09:11:11.282Z,580.00
2024-02-08T09:12:11.329Z,574.00
2024-02-08T09:13:11.462Z,578.00
2024-02-08T09:14:11.794Z,571.00
2024-02-08T09:15:11.500Z,580.00
2024-02-08T09:16:11.490Z,573.00
2024-02-08T09:17:24.515Z,579.00
2024-02-08T09:18:12.620Z,589.00
2024-02-08T09:19:11.604Z,589.00
2024-02-08T09:20:11.585Z,590.00
2024-02-08T09:21:11.496Z,606.00
2024-02-08T09:22:11.556Z,694.00
2024-02-08T09:23:11.513Z,735.00
2024-02-08T09:24:11.481Z,743.00
2024-02-08T09:25:22.478Z,750.00
2024-02-08T09:26:12.518Z,749.00
2024-02-08T09:27:11.547Z,743.00
2024-02-08T09:28:11.585Z,744.00
2024-02-08T09:29:11.551Z,748.00
2024-02-08T09:30:11.573Z,773.00
2024-02-08T09:31:11.585Z,788.00
2024-02-08T09:32:11.679Z,815.00
2024-02-08T09:33:11.541Z,812.00
2024-02-08T09:34:11.664Z,809.00
2024-02-08T09:35:11.697Z,810.00
2024-02-08T09:36:11.589Z,806.00
2024-02-08T09:37:11.894Z,812.00
2024-02-08T09:38:11.614Z,814.00
2024-02-08T09:39:11.659Z,821.00
2024-02-08T09:40:11.780Z,831.00
2024-02-08T09:41:11.733Z,844.00
2024-02-08T09:42:11.709Z,868.00
2024-02-08T09:43:19.488Z,870.00
2024-02-08T09:44:19.025Z,865.00
2024-02-08T09:45:19.136Z,866.00
2024-02-08T09:46:19.220Z,874.00
2024-02-08T09:47:19.112Z,879.00
2024-02-08T09:48:19.130Z,884.00
2024-02-08T09:49:19.737Z,885.00
2024-02-08T09:50:19.144Z,893.00
2024-02-08T09:51:19.101Z,909.00
2024-02-08T09:52:19.159Z,919.00
2024-02-08T09:53:41.626Z,973.00
2024-02-08T09:54:41.600Z,967.00
2024-02-08T09:55:19.120Z,959.00
2024-02-08T09:56:42.618Z,960.00
2024-02-08T09:57:19.256Z,965.00
2024-02-08T09:58:19.290Z,968.00
2024-02-08T09:59:19.360Z,978.00
2024-02-08T10:00:19.396Z,1002.00
2024-02-08T10:01:19.486Z,1009.00
2024-02-08T10:02:19.429Z,1021.00
2024-02-08T10:03:19.418Z,1040.00
2024-02-08T10:04:19.929Z,1050.00
2024-02-08T10:05:19.572Z,1064.00
2024-02-08T10:06:19.640Z,1102.00
2024-02-08T10:07:19.765Z,1106.00
2024-02-08T10:08:19.697Z,1123.00
2024-02-08T10:09:19.808Z,1137.00
2024-02-08T10:10:19.889Z,1270.00
2024-02-08T10:11:19.885Z,1273.00
2024-02-08T10:12:20.342Z,1273.00
2024-02-08T10:13:20.071Z,1266.00
2024-02-08T10:14:20.050Z,1253.00
2024-02-08T10:15:20.083Z,1253.00
2024-02-08T10:16:20.244Z,1257.00
2024-02-08T10:17:20.196Z,1270.00
2024-02-08T10:18:20.318Z,1262.00
2024-02-08T10:19:20.379Z,1259.00
2024-02-08T10:20:20.417Z,1258.00
2024-02-08T10:21:20.345Z,1267.00
2024-02-08T10:22:20.441Z,1318.00
2024-02-08T10:23:20.479Z,1326.00
2024-02-08T10:24:20.483Z,1333.00
2024-02-08T10:25:20.650Z,1332.00
2024-02-08T10:26:20.620Z,1330.00
2024-02-08T10:27:20.625Z,1333.00
2024-02-08T10:28:20.720Z,1138.00
2024-02-08T10:29:20.735Z,884.00
2024-02-08T10:30:20.773Z,863.00
2024-02-08T10:31:20.830Z,821.00
2024-02-08T10:32:20.894Z,776.00
2024-02-08T10:33:21.003Z,788.00
2024-02-08T10:34:21.122Z,765.00
2024-02-08T10:35:21.211Z,752.00
2024-02-08T10:36:23.360Z,746.00
2024-02-08T10:37:21.172Z,712.00
2024-02-08T10:38:21.076Z,689.00
2024-02-08T10:39:21.126Z,681.00
2024-02-08T10:40:21.104Z,670.00
2024-02-08T10:41:21.134Z,640.00
2024-02-08T10:42:22.362Z,646.00
2024-02-08T10:43:21.205Z,653.00
2024-02-08T10:44:21.109Z,710.00
2024-02-08T10:45:21.142Z,722.00
2024-02-08T10:46:21.207Z,739.00
2024-02-08T10:47:28.945Z,753.00
2024-02-08T10:48:22.254Z,821.00
2024-02-08T10:49:21.268Z,832.00
2024-02-08T10:50:22.283Z,840.00
2024-02-08T10:51:21.254Z,849.00
2024-02-08T10:52:22.708Z,870.00
2024-02-08T10:53:21.230Z,893.00
2024-02-08T10:54:21.433Z,903.00
2024-02-08T10:55:21.311Z,905.00
2024-02-08T10:56:21.248Z,911.00
2024-02-08T10:57:21.257Z,920.00
2024-02-08T10:58:21.280Z,923.00
2024-02-08T10:59:21.240Z,930.00
2024-02-08T11:00:21.233Z,939.00
2024-02-08T11:01:21.442Z,960.00
2024-02-08T11:02:21.275Z,957.00
2024-02-08T11:03:21.363Z,959.00
2024-02-08T11:04:21.488Z,967.00
2024-02-08T11:05:21.503Z,971.00
2024-02-08T11:06:21.583Z,977.00
2024-02-08T11:07:21.634Z,988.00
2024-02-08T11:08:21.639Z,994.00
2024-02-08T11:09:21.702Z,1004.00
2024-02-08T11:10:22.229Z,1011.00
2024-02-08T11:11:21.862Z,1026.00
2024-02-08T11:12:21.901Z,1081.00
2024-02-08T11:13:21.983Z,1088.00
2024-02-08T11:14:22.052Z,1087.00
2024-02-08T11:15:22.065Z,1087.00
2024-02-08T11:16:22.786Z,1081.00
2024-02-08T11:17:22.458Z,1084.00
2024-02-08T11:18:22.257Z,1100.00
2024-02-08T11:19:22.377Z,1128.00
2024-02-08T11:20:22.453Z,1157.00
2024-02-08T11:21:22.444Z,1139.00
2024-02-08T11:22:22.494Z,1133.00
2024-02-08T11:23:22.472Z,1138.00
2024-02-08T11:24:24.524Z,1148.00
2024-02-08T11:25:22.583Z,1147.00
2024-02-08T11:26:22.637Z,1139.00
2024-02-08T11:27:22.685Z,1132.00
2024-02-08T11:28:26.911Z,1125.00
2024-02-08T11:29:22.714Z,982.00
2024-02-08T11:30:22.731Z,864.00
2024-02-08T11:31:22.750Z,784.00
2024-02-08T11:32:22.720Z,764.00
2024-02-08T11:33:22.725Z,728.00
2024-02-08T11:34:22.883Z,697.00
2024-02-08T11:35:22.900Z,672.00
2024-02-08T11:36:22.759Z,663.00
2024-02-08T11:37:22.769Z,657.00
2024-02-08T11:38:22.754Z,648.00
2024-02-08T11:39:22.747Z,643.00
2024-02-08T11:40:22.764Z,639.00
2024-02-08T11:41:22.742Z,621.00
2024-02-08T11:42:22.753Z,605.00
2024-02-08T11:43:22.807Z,594.00
2024-02-08T11:44:22.825Z,573.00
2024-02-08T11:45:22.853Z,566.00
2024-02-08T11:46:23.038Z,560.00
2024-02-08T11:47:23.017Z,558.00
2024-02-08T11:48:23.194Z,559.00
2024-02-08T11:49:23.221Z,559.00
2024-02-08T11:50:23.157Z,575.00
2024-02-08T11:51:23.293Z,612.00
2024-02-08T11:52:23.340Z,635.00
2024-02-08T11:53:23.316Z,652.00
2024-02-08T11:54:23.392Z,666.00
2024-02-08T11:55:23.525Z,669.00
2024-02-08T11:56:23.436Z,674.00
2024-02-08T11:57:23.483Z,676.00
2024-02-08T11:58:23.614Z,681.00
2024-02-08T11:59:23.603Z,763.00
2024-02-08T12:00:23.644Z,691.00
2024-02-08T12:01:23.764Z,686.00
2024-02-08T12:02:23.766Z,685.00
2024-02-08T12:03:23.796Z,679.00
2024-02-08T12:04:23.918Z,670.00
2024-02-08T12:05:23.966Z,662.00
2024-02-08T12:06:24.325Z,668.00
2024-02-08T12:07:24.018Z,675.00
2024-02-08T12:08:31.029Z,684.00
2024-02-08T12:09:24.957Z,734.00
2024-02-08T12:10:23.999Z,765.00
2024-02-08T12:11:23.981Z,746.00
2024-02-08T12:12:23.943Z,739.00
2024-02-08T12:13:24.029Z,739.00
2024-02-08T12:14:27.114Z,746.00
2024-02-08T12:15:23.990Z,751.00
2024-02-08T12:16:24.038Z,760.00
2024-02-08T12:17:24.069Z,764.00
2024-02-08T12:18:23.967Z,763.00
2024-02-08T12:19:24.073Z,761.00
2024-02-08T12:20:23.976Z,757.00
2024-02-08T12:21:23.973Z,753.00
2024-02-08T12:22:24.026Z,751.00
2024-02-08T12:23:23.979Z,745.00
2024-02-08T12:24:23.970Z,744.00
2024-02-08T12:25:24.018Z,745.00
2024-02-08T12:26:23.952Z,740.00
2024-02-08T12:27:23.991Z,737.00
2024-02-08T12:28:23.999Z,738.00
2024-02-08T12:29:23.958Z,735.00
2024-02-08T12:30:24.011Z,734.00
2024-02-08T12:31:24.034Z,734.00
2024-02-08T12:32:24.042Z,734.00
2024-02-08T12:33:24.060Z,732.00
2024-02-08T12:34:24.025Z,732.00
2024-02-08T12:35:24.002Z,734.00
2024-02-08T12:36:24.011Z,735.00
2024-02-08T12:37:24.137Z,736.00
2024-02-08T12:38:23.978Z,733.00
2024-02-08T12:39:23.985Z,729.00
2024-02-08T12:40:24.115Z,724.00
2024-02-08T12:41:24.013Z,714.00
2024-02-08T12:42:24.014Z,693.00
2024-02-08T12:43:24.029Z,702.00
2024-02-08T12:44:23.989Z,904.00
2024-02-08T12:45:23.983Z,743.00
2024-02-08T12:46:24.079Z,736.00
2024-02-08T12:47:24.001Z,733.00
2024-02-08T12:48:24.270Z,729.00
2024-02-08T12:49:24.364Z,722.00
2024-02-08T12:50:27.088Z,730.00
2024-02-08T12:51:24.376Z,748.00
2024-02-08T12:52:24.447Z,760.00
2024-02-08T12:53:24.238Z,765.00
2024-02-08T12:54:24.216Z,767.00
2024-02-08T12:55:24.471Z,774.00
2024-02-08T12:56:24.245Z,781.00
2024-02-08T12:57:24.234Z,784.00
2024-02-08T12:58:24.258Z,786.00
2024-02-08T12:59:24.225Z,782.00
2024-02-08T13:00:24.249Z,782.00
2024-02-08T13:01:24.264Z,785.00
2024-02-08T13:02:24.312Z,782.00
2024-02-08T13:03:24.241Z,783.00
2024-02-08T13:04:24.392Z,789.00
2024-02-08T13:05:24.313Z,799.00
2024-02-08T13:06:24.418Z,808.00
2024-02-08T13:07:24.433Z,815.00
2024-02-08T13:08:24.613Z,829.00
2024-02-08T13:09:24.535Z,873.00
2024-02-08T13:10:24.593Z,882.00
2024-02-08T13:11:24.634Z,914.00
2024-02-08T13:12:24.673Z,928.00
2024-02-08T13:13:24.897Z,929.00
2024-02-08T13:14:24.728Z,921.00
2024-02-08T13:15:24.815Z,917.00
2024-02-08T13:16:24.881Z,918.00
2024-02-08T13:17:25.036Z,927.00
2024-02-08T13:18:24.911Z,883.00
2024-02-08T13:19:25.047Z,872.00
2024-02-08T13:20:25.383Z,869.00
2024-02-08T13:21:25.118Z,864.00
2024-02-08T13:22:25.219Z,863.00
2024-02-08T13:23:25.208Z,863.00
2024-02-08T13:24:25.295Z,856.00
2024-02-08T13:25:25.381Z,849.00
2024-02-08T13:26:30.391Z,843.00
2024-02-08T13:27:26.515Z,833.00
2024-02-08T13:28:25.460Z,822.00
2024-02-08T13:29:25.360Z,814.00
2024-02-08T13:30:25.407Z,804.00
2024-02-08T13:31:25.456Z,797.00
2024-02-08T13:32:25.362Z,788.00
2024-02-08T13:33:25.474Z,779.00
2024-02-08T13:34:28.968Z,772.00
2024-02-08T13:35:25.702Z,765.00
2024-02-08T13:36:25.394Z,758.00
2024-02-08T13:37:25.498Z,753.00
2024-02-08T13:38:25.390Z,749.00
2024-02-08T13:39:25.379Z,748.00
2024-02-08T13:40:25.519Z,743.00
2024-02-08T13:41:49.324Z,734.00
2024-02-08T13:43:53.942Z,715.00
2024-02-08T13:44:52.942Z,708.00
2024-02-08T13:45:33.813Z,703.00
2024-02-08T13:46:52.976Z,700.00
2024-02-08T13:47:30.480Z,691.00
2024-02-08T13:48:30.626Z,682.00
2024-02-08T13:49:30.491Z,678.00
2024-02-08T13:50:32.512Z,676.00
2024-02-08T13:51:30.346Z,673.00
2024-02-08T13:52:31.211Z,666.00
2024-02-08T13:53:30.313Z,658.00
2024-02-08T13:54:30.334Z,653.00
2024-02-08T13:55:42.386Z,652.00
2024-02-08T13:56:31.332Z,653.00
2024-02-08T13:57:30.354Z,645.00
2024-02-08T13:58:30.463Z,639.00
2024-02-08T13:59:30.367Z,634.00
2024-02-08T14:00:30.414Z,632.00
2024-02-08T14:01:30.418Z,631.00
2024-02-08T14:02:30.487Z,631.00
2024-02-08T14:03:31.194Z,627.00
2024-02-08T14:04:30.360Z,623.00
2024-02-08T14:05:30.437Z,619.00
2024-02-08T14:06:30.496Z,615.00
2024-02-08T14:07:30.437Z,614.00
2024-02-08T14:08:30.389Z,613.00
2024-02-08T14:09:30.365Z,610.00
2024-02-08T14:10:30.403Z,606.00
2024-02-08T14:11:30.352Z,604.00
2024-02-08T14:12:30.367Z,601.00
2024-02-08T14:13:31.570Z,596.00
2024-02-08T14:14:30.365Z,591.00
2024-02-08T14:15:30.374Z,589.00
2024-02-08T14:16:30.389Z,587.00
2024-02-08T14:17:30.380Z,582.00
2024-02-08T14:18:32.591Z,580.00
2024-02-08T14:19:30.491Z,578.00
2024-02-08T14:20:30.423Z,578.00
2024-02-08T14:21:30.461Z,578.00
2024-02-08T14:22:30.465Z,577.00
2024-02-08T14:23:30.414Z,576.00
2024-02-08T14:24:30.446Z,577.00
2024-02-08T14:25:30.480Z,573.00
2024-02-08T14:26:30.418Z,570.00
2024-02-08T14:27:30.459Z,568.00
2024-02-08T14:28:30.597Z,566.00
2024-02-08T14:29:30.469Z,565.00
2024-02-08T14:30:30.447Z,563.00
2024-02-08T14:31:30.514Z,562.00
2024-02-08T14:32:36.072Z,562.00
2024-02-08T14:33:31.472Z,565.00
2024-02-08T14:34:30.604Z,564.00
2024-02-08T14:35:30.485Z,561.00
2024-02-08T14:36:30.430Z,559.00
2024-02-08T14:37:30.545Z,557.00
2024-02-08T14:38:30.471Z,554.00
2024-02-08T14:39:31.670Z,553.00
2024-02-08T14:40:30.499Z,553.00
2024-02-08T14:41:30.452Z,551.00
2024-02-08T14:42:30.445Z,554.00
2024-02-08T14:43:30.532Z,556.00
2024-02-08T14:44:30.460Z,554.00
2024-02-08T14:45:30.454Z,552.00
2024-02-08T14:46:30.583Z,551.00
2024-02-08T14:47:30.517Z,553.00
2024-02-08T14:48:30.430Z,552.00
2024-02-08T14:49:31.100Z,549.00
2024-02-08T14:50:30.486Z,544.00
2024-02-08T14:51:30.468Z,546.00
2024-02-08T14:52:30.526Z,542.00
2024-02-08T14:53:30.483Z,542.00
2024-02-08T14:54:30.505Z,545.00
2024-02-08T14:55:30.526Z,546.00
2024-02-08T14:56:30.479Z,555.00
2024-02-08T14:57:30.495Z,594.00
2024-02-08T14:58:30.566Z,604.00
2024-02-08T14:59:30.483Z,615.00
2024-02-08T15:00:30.505Z,618.00
2024-02-08T15:01:30.584Z,619.00
2024-02-08T15:02:30.705Z,617.00
2024-02-08T15:03:30.544Z,616.00
2024-02-08T15:04:30.512Z,621.00
2024-02-08T15:05:30.551Z,621.00
2024-02-08T15:06:30.540Z,620.00
2024-02-08T15:07:30.557Z,619.00
2024-02-08T15:08:30.556Z,616.00
2024-02-08T15:09:30.598Z,617.00
2024-02-08T15:10:30.649Z,618.00
2024-02-08T15:11:30.640Z,617.00
2024-02-08T15:12:30.723Z,615.00
2024-02-08T15:13:30.739Z,615.00
2024-02-08T15:14:30.781Z,617.00
2024-02-08T15:15:31.993Z,623.00
2024-02-08T15:16:30.932Z,624.00
2024-02-08T15:17:30.952Z,628.00
2024-02-08T15:18:30.992Z,631.00
2024-02-08T15:19:31.070Z,637.00
2024-02-08T15:20:31.075Z,642.00
2024-02-08T15:21:31.145Z,642.00
2024-02-08T15:22:31.283Z,642.00
2024-02-08T15:23:31.212Z,643.00
2024-02-08T15:24:31.270Z,643.00
2024-02-08T15:25:31.407Z,643.00
2024-02-08T15:26:31.384Z,640.00
2024-02-08T15:27:31.421Z,642.00
2024-02-08T15:28:31.540Z,643.00
2024-02-08T15:29:31.644Z,643.00
2024-02-08T15:30:31.623Z,646.00
2024-02-08T15:31:31.703Z,644.00
2024-02-08T15:32:32.141Z,645.00
2024-02-08T15:33:31.805Z,646.00
2024-02-08T15:34:31.875Z,648.00
2024-02-08T15:38:04.198Z,648.00
2024-02-08T15:39:04.266Z,646.00
2024-02-08T15:40:05.626Z,645.00
2024-02-08T15:41:04.239Z,645.00
2024-02-08T15:42:04.196Z,648.00
2024-02-08T15:42:41.690Z,648.00
2024-02-08T15:43:41.756Z,649.00
2024-02-08T15:44:41.688Z,650.00
2024-02-08T15:45:41.702Z,648.00
2024-02-08T15:46:41.717Z,645.00
2024-02-08T15:47:41.720Z,647.00
2024-02-08T15:48:41.805Z,649.00
2024-02-08T15:49:41.809Z,651.00
2024-02-08T15:50:41.683Z,648.00
2024-02-08T15:51:41.743Z,649.00
2024-02-08T15:52:41.727Z,651.00
2024-02-08T15:53:41.698Z,653.00
2024-02-08T15:54:41.724Z,653.00
2024-02-08T15:55:41.823Z,654.00
2024-02-08T15:56:41.701Z,654.00
2024-02-08T15:57:41.709Z,655.00
2024-02-08T15:58:41.729Z,656.00
2024-02-08T15:59:41.735Z,652.00
2024-02-08T16:00:41.746Z,653.00
2024-02-08T16:01:41.854Z,652.00
2024-02-08T16:02:41.770Z,653.00
2024-02-08T16:03:41.801Z,663.00
2024-02-08T16:04:41.831Z,665.00
2024-02-08T16:05:41.769Z,669.00
2024-02-08T16:06:42.012Z,671.00
2024-02-08T16:07:41.742Z,672.00
2024-02-08T16:08:41.753Z,668.00
2024-02-08T16:09:41.813Z,666.00
2024-02-08T16:10:41.847Z,665.00
2024-02-08T16:11:41.862Z,663.00
2024-02-08T16:12:41.860Z,661.00
2024-02-08T16:13:41.930Z,661.00
2024-02-08T16:14:41.961Z,663.00
2024-02-08T16:15:41.994Z,663.00
2024-02-08T16:16:42.085Z,661.00
2024-02-08T16:17:42.099Z,661.00
2024-02-08T16:18:42.210Z,662.00
2024-02-08T16:19:42.249Z,661.00
2024-02-08T16:20:42.597Z,661.00
2024-02-08T16:21:42.297Z,660.00
2024-02-08T16:22:42.307Z,658.00
2024-02-08T16:23:42.428Z,658.00
2024-02-08T16:24:42.561Z,662.00
2024-02-08T16:25:42.552Z,661.00
2024-02-08T16:26:42.601Z,663.00
2024-02-08T16:27:42.635Z,661.00
2024-02-08T16:28:42.720Z,661.00
2024-02-08T16:29:42.695Z,664.00
2024-02-08T16:30:42.801Z,664.00
2024-02-08T16:31:42.820Z,665.00
2024-02-08T16:32:43.064Z,666.00
2024-02-08T16:33:43.470Z,663.00
2024-02-08T16:34:43.072Z,660.00
2024-02-08T16:35:43.010Z,662.00
2024-02-08T16:36:43.048Z,663.00
2024-02-08T16:37:43.297Z,664.00
2024-02-08T16:38:43.124Z,666.00
2024-02-08T16:39:43.189Z,667.00
2024-02-08T16:40:43.290Z,667.00
2024-02-08T16:41:43.301Z,670.00
2024-02-08T16:42:43.365Z,672.00
2024-02-08T16:43:43.468Z,674.00
2024-02-08T16:44:43.661Z,670.00
2024-02-08T16:45:43.514Z,666.00
2024-02-08T16:46:43.570Z,663.00
2024-02-08T16:47:43.660Z,663.00
2024-02-08T16:48:43.630Z,660.00
2024-02-08T16:49:43.947Z,661.00
2024-02-08T16:50:44.774Z,663.00
2024-02-08T16:51:43.837Z,663.00
2024-02-08T16:52:44.098Z,659.00
2024-02-08T16:53:43.976Z,657.00
2024-02-08T16:54:44.032Z,656.00
2024-02-08T16:55:44.142Z,654.00
2024-02-08T16:56:44.103Z,654.00
2024-02-08T16:57:44.247Z,654.00
2024-02-08T16:58:44.208Z,654.00
2024-02-08T16:59:44.290Z,659.00
2024-02-08T17:00:44.342Z,660.00
2024-02-08T17:01:44.529Z,661.00
2024-02-08T17:02:44.508Z,660.00
2024-02-08T17:03:44.523Z,664.00
2024-02-08T17:04:44.771Z,661.00
2024-02-08T17:05:44.738Z,660.00
2024-02-08T17:06:45.004Z,658.00
2024-02-08T17:07:44.921Z,658.00
2024-02-08T17:08:44.797Z,658.00
2024-02-08T17:09:44.958Z,661.00
2024-02-08T17:10:45.029Z,659.00
2024-02-08T17:11:44.965Z,658.00
2024-02-08T17:12:45.055Z,659.00
2024-02-08T17:13:46.681Z,656.00
2024-02-08T17:14:45.130Z,655.00
2024-02-08T17:15:45.161Z,655.00
2024-02-08T17:16:45.320Z,652.00
2024-02-08T17:17:45.293Z,653.00
2024-02-08T17:18:45.498Z,652.00
2024-02-08T17:19:45.399Z,652.00
2024-02-08T17:20:45.458Z,651.00
2024-02-08T17:21:45.499Z,648.00
2024-02-08T17:22:45.606Z,645.00
2024-02-08T17:23:45.563Z,647.00
2024-02-08T17:24:45.655Z,646.00
2024-02-08T17:25:45.701Z,646.00
2024-02-08T17:26:45.751Z,644.00
2024-02-08T17:27:45.773Z,644.00
2024-02-08T17:28:45.802Z,646.00
2024-02-08T17:29:45.910Z,647.00
2024-02-08T17:31:09.670Z,648.00
2024-02-08T17:32:08.421Z,650.00
2024-02-08T17:32:45.963Z,650.00
2024-02-08T17:34:08.502Z,649.00
2024-02-08T17:35:08.551Z,649.00
2024-02-08T17:35:46.014Z,649.00
2024-02-08T17:36:46.072Z,648.00
2024-02-08T17:37:46.202Z,649.00
2024-02-08T17:38:46.115Z,647.00
2024-02-08T17:39:45.924Z,648.00
2024-02-08T17:40:45.966Z,649.00
2024-02-08T17:41:45.967Z,649.00
2024-02-08T17:42:45.932Z,650.00
2024-02-08T17:43:45.990Z,648.00
2024-02-08T17:44:45.945Z,649.00
2024-02-08T17:45:45.921Z,652.00
2024-02-08T17:46:45.975Z,652.00
2024-02-08T17:47:46.023Z,652.00
2024-02-08T17:48:46.013Z,650.00
2024-02-08T17:49:45.976Z,649.00
2024-02-08T17:50:45.934Z,648.00
2024-02-08T17:51:45.920Z,648.00
2024-02-08T17:52:46.678Z,648.00
2024-02-08T17:53:46.473Z,650.00
2024-02-08T17:54:46.583Z,649.00
2024-02-08T17:55:46.076Z,650.00
2024-02-08T17:56:46.058Z,650.00
2024-02-08T17:57:46.127Z,650.00
2024-02-08T17:58:46.178Z,647.00
2024-02-08T17:59:46.188Z,649.00
2024-02-08T18:00:46.273Z,650.00
